Time;durP1;ratioP1;P1;durP2;ratioP2;P2;SDS_P1;SDS_P2;PMS_P1;PMS_P2;Temp;Humidity;BMP_temperature;BMP_pressure;BME280_temperature;BME280_humidity;BME280_pressure;Samples;Min_cycle;Max_cycle;Signal;HPM_P1;HPM_P2
2022/06/09 00:01:27;;;;;;;23.58;3.45;;;11.40;86.90;;;;;;5046795;28;20041;-77
2022/06/09 00:03:58;;;;;;;29.38;3.47;;;11.40;87.00;;;;;;5038046;28;20053;-77
2022/06/09 00:06:32;;;;;;;26.52;4.07;;;11.40;87.00;;;;;;5048240;28;20053;-77
2022/06/09 00:09:02;;;;;;;21.45;2.95;;;11.30;87.00;;;;;;5037920;28;20061;-77
2022/06/09 00:11:34;;;;;;;26.58;3.55;;;11.30;87.00;;;;;;5040802;28;20046;-77
2022/06/09 00:14:03;;;;;;;20.70;3.47;;;11.30;87.00;;;;;;5033185;28;20053;-77
2022/06/09 00:16:31;;;;;;;27.88;3.58;;;11.30;86.90;;;;;;5038406;28;20539;-77
2022/06/09 00:18:58;;;;;;;18.52;2.72;;;11.30;86.90;;;;;;5036280;28;20053;-78
2022/06/09 00:21:26;;;;;;;30.83;3.67;;;11.30;86.90;;;;;;5034449;28;20052;-77
2022/06/09 00:23:54;;;;;;;35.42;4.20;;;11.30;86.80;;;;;;5031083;28;20490;-77
2022/06/09 00:26:21;;;;;;;24.00;3.58;;;11.30;86.80;;;;;;5033462;28;20053;-77
2022/06/09 00:28:50;;;;;;;22.05;3.58;;;11.30;86.80;;;;;;5036506;28;20045;-77
2022/06/09 00:31:17;;;;;;;18.67;2.80;;;11.30;87.00;;;;;;5032761;28;20048;-78
2022/06/09 00:33:45;;;;;;;26.77;3.47;;;11.30;86.90;;;;;;5028293;28;20045;-77
2022/06/09 00:36:13;;;;;;;25.30;3.40;;;11.30;86.80;;;;;;5031496;28;20049;-77
2022/06/09 00:38:41;;;;;;;31.25;3.92;;;11.20;86.80;;;;;;5031875;28;20453;-77
2022/06/09 00:41:09;;;;;;;29.55;2.95;;;11.20;86.80;;;;;;5040717;28;20510;-77
2022/06/09 00:43:40;;;;;;;30.10;3.55;;;11.10;86.80;;;;;;5047906;28;20486;-77
2022/06/09 00:46:16;;;;;;;20.33;3.53;;;11.00;86.90;;;;;;5038151;28;20057;-77
2022/06/09 00:48:45;;;;;;;23.75;3.80;;;11.00;87.00;;;;;;5037875;28;20045;-77
2022/06/09 00:51:47;;;;;;;19.90;2.65;;;10.90;87.00;;;;;;5033934;28;20424;-77
2022/06/09 00:54:25;;;;;;;21.98;3.58;;;10.90;87.10;;;;;;5037584;28;20076;-77
2022/06/09 00:57:00;;;;;;;21.95;3.30;;;10.90;87.10;;;;;;5037676;28;20046;-77
2022/06/09 00:59:28;;;;;;;21.17;3.33;;;10.90;87.00;;;;;;5036783;28;20060;-77
2022/06/09 01:02:00;;;;;;;19.02;2.45;;;10.80;87.00;;;;;;5046886;28;20701;-77
2022/06/09 01:04:31;;;;;;;26.20;3.55;;;10.80;87.00;;;;;;5040646;28;20053;-77
2022/06/09 01:07:05;;;;;;;23.15;3.03;;;10.90;86.90;;;;;;5036231;28;20494;-77
2022/06/09 01:09:32;;;;;;;25.63;4.60;;;10.90;86.80;;;;;;5028432;28;20364;-77
2022/06/09 01:12:00;;;;;;;24.45;2.95;;;10.80;86.80;;;;;;5031351;28;20058;-77
2022/06/09 01:14:32;;;;;;;26.85;3.88;;;10.80;86.70;;;;;;5051730;28;20490;-77
2022/06/09 01:17:00;;;;;;;17.95;2.42;;;10.80;86.70;;;;;;5035424;28;20495;-77
2022/06/09 01:19:56;;;;;;;21.38;3.10;;;10.80;86.60;;;;;;5036386;28;20068;-77
2022/06/09 01:22:49;;;;;;;18.85;2.83;;;10.80;86.70;;;;;;5042891;28;20060;-77
2022/06/09 01:25:34;;;;;;;23.95;3.35;;;10.80;86.70;;;;;;5036180;28;20045;-77
2022/06/09 01:28:17;;;;;;;20.15;2.70;;;10.70;86.80;;;;;;5036169;28;20422;-77
2022/06/09 01:31:15;;;;;;;21.67;3.22;;;10.70;86.80;;;;;;5031291;28;20066;-78
2022/06/09 01:34:01;;;;;;;25.17;2.78;;;10.70;86.90;;;;;;5035513;28;20057;-77
2022/06/09 01:36:51;;;;;;;17.25;2.22;;;10.70;86.90;;;;;;5053303;28;21084;-77
2022/06/09 01:39:42;;;;;;;12.40;2.45;;;10.70;86.80;;;;;;5040762;28;20056;-77
2022/06/09 01:42:26;;;;;;;14.88;2.22;;;10.70;86.70;;;;;;5036454;28;20487;-77
2022/06/09 01:45:09;;;;;;;21.60;2.58;;;10.70;86.50;;;;;;5026445;28;20052;-77
2022/06/09 01:47:43;;;;;;;18.13;2.50;;;10.70;86.40;;;;;;5042578;28;20041;-77
2022/06/09 01:50:18;;;;;;;23.73;2.75;;;10.70;86.30;;;;;;5032658;28;20618;-77
2022/06/09 01:52:46;;;;;;;22.67;3.25;;;10.70;86.30;;;;;;5034600;28;20048;-77
2022/06/09 01:55:18;;;;;;;14.73;2.88;;;10.70;86.40;;;;;;5040971;28;20072;-77
2022/06/09 01:57:49;;;;;;;19.52;2.80;;;10.70;86.30;;;;;;5034837;28;20042;-77
2022/06/09 02:00:19;;;;;;;21.48;2.78;;;10.60;86.30;;;;;;5034665;28;20050;-77
2022/06/09 02:03:24;;;;;;;17.05;2.67;;;10.70;86.20;;;;;;5034438;28;20049;-77
2022/06/09 02:05:55;;;;;;;18.77;2.38;;;10.70;86.10;;;;;;5030905;28;20064;-77
2022/06/09 02:08:24;;;;;;;20.00;2.80;;;10.70;86.10;;;;;;5009646;28;20507;-77
2022/06/09 02:10:58;;;;;;;19.27;2.50;;;10.70;86.10;;;;;;5039740;28;20048;-78
2022/06/09 02:13:31;;;;;;;21.08;3.00;;;10.60;86.00;;;;;;5043374;28;20068;-77
2022/06/09 02:16:03;;;;;;;16.60;2.85;;;10.60;86.10;;;;;;5038044;28;20524;-77
2022/06/09 02:18:37;;;;;;;20.15;3.53;;;10.60;86.20;;;;;;5036845;28;20060;-77
2022/06/09 02:21:12;;;;;;;19.67;2.50;;;10.50;86.10;;;;;;5032239;28;20056;-77
2022/06/09 02:23:40;;;;;;;12.38;2.42;;;10.50;86.30;;;;;;5036228;28;20053;-77
2022/06/09 02:26:08;;;;;;;13.00;2.13;;;10.40;86.30;;;;;;5040598;28;20116;-77
2022/06/09 02:28:36;;;;;;;23.65;3.13;;;10.40;86.40;;;;;;5032803;28;20064;-77
2022/06/09 02:31:04;;;;;;;15.50;2.20;;;10.30;86.50;;;;;;5034627;28;20040;-78
2022/06/09 02:33:32;;;;;;;16.63;2.55;;;10.30;86.60;;;;;;5038971;28;20041;-77
2022/06/09 02:36:00;;;;;;;21.33;2.83;;;10.30;86.50;;;;;;5037106;28;20041;-78
2022/06/09 02:38:28;;;;;;;17.13;2.55;;;10.30;86.50;;;;;;5029511;28;20050;-77
2022/06/09 02:40:55;;;;;;;17.05;2.53;;;10.30;86.50;;;;;;5040320;28;20049;-77
2022/06/09 02:43:24;;;;;;;19.95;3.28;;;10.30;86.60;;;;;;5052846;28;20498;-77
2022/06/09 02:45:53;;;;;;;15.93;2.45;;;10.30;86.60;;;;;;5037355;28;20045;-77
2022/06/09 02:48:22;;;;;;;16.15;2.90;;;10.30;86.60;;;;;;5037339;28;20033;-74
2022/06/09 02:50:52;;;;;;;13.20;1.80;;;10.30;86.70;;;;;;5031816;28;20045;-78
2022/06/09 02:53:22;;;;;;;23.48;2.42;;;10.20;86.60;;;;;;5032751;28;20509;-78
2022/06/09 02:55:50;;;;;;;25.08;2.72;;;10.30;86.60;;;;;;5031991;28;20178;-77
2022/06/09 02:58:18;;;;;;;17.38;2.47;;;10.30;86.70;;;;;;5032442;28;20056;-77
2022/06/09 03:00:45;;;;;;;10.32;1.77;;;10.20;86.80;;;;;;5035084;28;20060;-77
2022/06/09 03:03:14;;;;;;;17.35;2.80;;;10.20;86.90;;;;;;5031023;28;20074;-77
2022/06/09 03:05:42;;;;;;;15.55;2.40;;;10.20;87.00;;;;;;5035467;28;20057;-77
2022/06/09 03:08:10;;;;;;;20.98;2.70;;;10.10;87.00;;;;;;5042893;28;20061;-77
2022/06/09 03:10:38;;;;;;;19.42;2.90;;;10.10;87.00;;;;;;5042445;28;20048;-77
2022/06/09 03:13:06;;;;;;;17.15;1.88;;;10.00;87.10;;;;;;5036741;28;20049;-77
2022/06/09 03:15:35;;;;;;;15.25;2.45;;;10.00;87.10;;;;;;5039173;28;20042;-77
2022/06/09 03:18:03;;;;;;;13.88;1.95;;;9.90;87.20;;;;;;5033695;28;20041;-77
2022/06/09 03:20:33;;;;;;;24.05;2.80;;;9.80;87.30;;;;;;5031732;28;20057;-77
2022/06/09 03:23:01;;;;;;;12.13;2.33;;;9.80;87.30;;;;;;5032915;28;20049;-77
2022/06/09 03:25:29;;;;;;;24.80;2.85;;;9.80;87.40;;;;;;5030523;28;20042;-77
2022/06/09 03:27:57;;;;;;;16.77;3.08;;;9.80;87.50;;;;;;5031985;28;20056;-77
2022/06/09 03:30:31;;;;;;;;;;;9.80;87.50;;;;;;5032260;28;20044;-77
2022/06/09 03:32:59;;;;;;;11.68;2.15;;;9.80;87.50;;;;;;5032656;28;20367;-77
2022/06/09 03:35:28;;;;;;;14.55;2.78;;;9.80;87.60;;;;;;5039470;28;20045;-77
2022/06/09 03:37:56;;;;;;;13.00;2.00;;;9.80;87.60;;;;;;5025111;28;20410;-77
2022/06/09 03:40:25;;;;;;;16.10;2.45;;;9.80;87.60;;;;;;5038721;28;20045;-77
2022/06/09 03:42:53;;;;;;;21.40;2.38;;;9.80;87.60;;;;;;5036337;28;20049;-77
2022/06/09 03:45:21;;;;;;;14.38;3.10;;;9.80;87.50;;;;;;5037184;28;20054;-77
2022/06/09 03:47:49;;;;;;;15.40;2.20;;;9.80;87.40;;;;;;5032511;28;20053;-77
2022/06/09 03:50:21;;;;;;;19.02;3.20;;;9.80;87.40;;;;;;5034915;28;20060;-77
2022/06/09 03:52:49;;;;;;;15.07;2.53;;;9.80;87.40;;;;;;5033817;28;20049;-78
2022/06/09 03:55:17;;;;;;;16.90;2.75;;;9.70;87.40;;;;;;5038808;28;20049;-77
2022/06/09 03:57:45;;;;;;;18.77;2.45;;;9.80;87.50;;;;;;5032189;28;20049;-77
2022/06/09 04:00:19;;;;;;;20.10;3.13;;;9.70;87.50;;;;;;5032037;28;20064;-77
2022/06/09 04:02:47;;;;;;;12.05;2.38;;;9.70;87.40;;;;;;5041386;28;20037;-77
2022/06/09 04:05:15;;;;;;;12.75;2.20;;;9.70;87.40;;;;;;5035095;28;20155;-77
2022/06/09 04:07:43;;;;;;;13.10;2.08;;;9.70;87.40;;;;;;5030631;28;20057;-77
2022/06/09 04:10:32;;;;;;;19.80;2.83;;;9.70;87.40;;;;;;5031850;28;20418;-77
2022/06/09 04:13:01;;;;;;;15.43;2.80;;;9.70;87.50;;;;;;5012714;28;20050;-77
2022/06/09 04:15:29;;;;;;;30.17;2.33;;;9.70;87.40;;;;;;5034036;28;20061;-77
2022/06/09 04:17:57;;;;;;;18.25;2.50;;;9.70;87.40;;;;;;5035696;28;20052;-77
2022/06/09 04:20:26;;;;;;;13.35;2.20;;;9.70;87.30;;;;;;5035914;28;20400;-77
2022/06/09 04:22:54;;;;;;;14.02;2.08;;;9.70;87.40;;;;;;5033772;28;20048;-77
2022/06/09 04:25:22;;;;;;;12.98;2.40;;;9.80;87.40;;;;;;5045927;28;20532;-78
2022/06/09 04:27:49;;;;;;;17.60;1.90;;;9.80;87.40;;;;;;5035951;28;20041;-77
2022/06/09 04:30:18;;;;;;;18.35;2.10;;;9.80;87.30;;;;;;5040167;28;20065;-77
2022/06/09 04:32:53;;;;;;;13.18;1.83;;;9.90;87.10;;;;;;5036358;28;20052;-77
2022/06/09 04:35:21;;;;;;;11.27;1.98;;;10.00;86.90;;;;;;5040417;28;20045;-77
2022/06/09 04:38:01;;;;;;;10.27;1.90;;;10.10;86.70;;;;;;5034838;28;20419;-77
2022/06/09 04:40:41;;;;;;;13.32;2.05;;;10.20;86.50;;;;;;5050377;28;20056;-77
2022/06/09 04:43:11;;;;;;;15.05;2.17;;;10.30;86.30;;;;;;5043457;28;20049;-77
2022/06/09 04:45:41;;;;;;;14.68;2.20;;;10.30;86.00;;;;;;5046862;28;20045;-77
2022/06/09 04:48:10;;;;;;;11.50;2.38;;;10.30;85.90;;;;;;5038905;28;20046;-77
2022/06/09 04:50:39;;;;;;;10.85;1.73;;;10.40;85.80;;;;;;5019867;28;20045;-79
2022/06/09 04:53:08;;;;;;;10.70;2.05;;;10.40;85.70;;;;;;5042791;28;20048;-77
2022/06/09 04:55:38;;;;;;;14.27;2.05;;;10.50;85.50;;;;;;5041705;28;20522;-78
2022/06/09 04:58:07;;;;;;;14.15;1.92;;;10.60;85.40;;;;;;5035495;28;20054;-78
2022/06/09 05:00:34;;;;;;;12.52;2.05;;;10.70;85.20;;;;;;5039765;28;20049;-77
2022/06/09 05:03:03;;;;;;;13.25;1.52;;;10.70;85.00;;;;;;5039903;28;20056;-77
2022/06/09 05:05:33;;;;;;;14.07;2.65;;;10.80;84.80;;;;;;5033572;28;20478;-77
2022/06/09 05:08:02;;;;;;;14.15;2.35;;;10.90;84.60;;;;;;5035693;28;20537;-77
2022/06/09 05:10:30;;;;;;;9.02;1.83;;;10.90;84.40;;;;;;5033963;28;20057;-77
2022/06/09 05:12:59;;;;;;;15.38;1.92;;;11.00;84.40;;;;;;5039627;28;20056;-77
2022/06/09 05:15:27;;;;;;;17.17;2.33;;;11.00;84.20;;;;;;5035568;28;20482;-77
2022/06/09 05:17:57;;;;;;;12.50;1.80;;;11.00;84.10;;;;;;5042626;28;20036;-77
2022/06/09 05:20:26;;;;;;;13.68;1.83;;;11.10;84.00;;;;;;5037805;28;20064;-76
2022/06/09 05:22:54;;;;;;;14.98;2.15;;;11.10;83.80;;;;;;5037727;28;20057;-77
2022/06/09 05:25:22;;;;;;;10.60;2.00;;;11.20;83.70;;;;;;5031187;28;20059;-77
2022/06/09 05:27:50;;;;;;;10.70;1.88;;;11.20;83.70;;;;;;5045814;28;20048;-77
2022/06/09 05:30:20;;;;;;;12.55;1.63;;;11.30;83.50;;;;;;5043640;28;20078;-77
2022/06/09 05:32:48;;;;;;;11.57;1.80;;;11.30;83.40;;;;;;5046563;28;20033;-77
2022/06/09 05:35:17;;;;;;;13.82;2.00;;;11.30;83.30;;;;;;5035764;28;20046;-77
2022/06/09 05:46:06;;;;;;;11.85;1.80;;;11.50;83.20;;;;;;5037251;28;20703;-77
2022/06/09 05:48:35;;;;;;;14.48;2.00;;;11.60;83.20;;;;;;5041309;28;20418;-77
2022/06/09 05:51:03;;;;;;;7.72;1.33;;;11.60;83.20;;;;;;5043987;28;20056;-77
2022/06/09 05:53:30;;;;;;;10.65;2.22;;;11.70;83.10;;;;;;5035622;28;20038;-77
2022/06/09 05:55:58;;;;;;;12.98;2.13;;;11.80;82.70;;;;;;5033687;28;20395;-77
2022/06/09 05:58:26;;;;;;;7.93;1.45;;;11.80;82.50;;;;;;5037769;28;20482;-77
2022/06/09 06:00:53;;;;;;;20.23;2.63;;;11.90;82.40;;;;;;5033114;28;20053;-77
2022/06/09 06:03:22;;;;;;;12.35;1.63;;;12.00;82.10;;;;;;5039936;28;20045;-77
2022/06/09 06:08:37;;;;;;;11.18;1.75;;;12.20;81.40;;;;;;5035372;28;20048;-77
2022/06/09 06:11:04;;;;;;;11.48;2.05;;;12.30;81.20;;;;;;5032721;28;20057;-77
2022/06/09 06:13:32;;;;;;;9.90;1.48;;;12.30;81.00;;;;;;5034721;28;20041;-77
2022/06/09 06:16:00;;;;;;;11.32;1.65;;;12.40;81.00;;;;;;5035349;28;20056;-77
2022/06/09 06:18:48;;;;;;;15.55;1.80;;;12.50;80.80;;;;;;5030776;28;20422;-76
2022/06/09 06:21:17;;;;;;;10.43;1.55;;;12.60;80.40;;;;;;5045781;28;20060;-76
2022/06/09 06:23:45;;;;;;;10.35;1.65;;;12.70;80.40;;;;;;5029681;28;20069;-84
2022/06/09 06:26:14;;;;;;;9.25;2.05;;;12.70;80.00;;;;;;5032404;28;20053;-77
2022/06/09 06:28:41;;;;;;;9.38;1.55;;;12.80;79.90;;;;;;5031361;28;20045;-77
2022/06/09 06:31:09;;;;;;;12.95;1.92;;;12.80;79.30;;;;;;5029803;28;20060;-77
2022/06/09 06:33:37;;;;;;;12.13;2.17;;;12.80;79.40;;;;;;5032044;28;20037;-77
2022/06/09 06:36:05;;;;;;;13.35;1.95;;;12.80;79.50;;;;;;5032922;28;20053;-77
2022/06/09 06:38:33;;;;;;;10.80;1.67;;;12.90;79.70;;;;;;5030960;28;20049;-77
2022/06/09 06:41:04;;;;;;;7.93;1.60;;;13.00;79.70;;;;;;5031936;28;20045;-76
2022/06/09 06:43:32;;;;;;;7.82;1.42;;;13.00;78.90;;;;;;5031002;28;20480;-76
2022/06/09 06:46:00;;;;;;;8.07;1.52;;;13.00;78.90;;;;;;5033321;28;20053;-75
2022/06/09 06:48:30;;;;;;;8.75;1.30;;;13.00;78.80;;;;;;5036685;28;20498;-75
2022/06/09 06:50:58;;;;;;;11.13;1.50;;;13.10;79.00;;;;;;5034960;28;20080;-75
2022/06/09 06:53:25;;;;;;;12.55;1.60;;;13.10;78.70;;;;;;5032784;28;20057;-76
2022/06/09 06:55:53;;;;;;;8.95;1.33;;;13.20;78.30;;;;;;5034987;28;20037;-76
2022/06/09 06:58:21;;;;;;;9.98;1.65;;;13.20;78.40;;;;;;5036162;28;20052;-76
2022/06/09 07:00:49;;;;;;;8.70;1.30;;;13.30;78.20;;;;;;5048726;28;20044;-76
2022/06/09 07:03:17;;;;;;;13.57;2.03;;;13.30;77.90;;;;;;5040048;28;20053;-76
2022/06/09 07:06:00;;;;;;;11.60;1.20;;;13.30;77.80;;;;;;5032496;28;20041;-76
2022/06/09 07:08:28;;;;;;;13.32;2.60;;;13.40;77.60;;;;;;5030907;28;20072;-76
2022/06/09 07:10:56;;;;;;;9.07;1.33;;;13.40;77.60;;;;;;5048537;28;20048;-77
2022/06/09 07:13:24;;;;;;;11.35;1.60;;;13.50;77.80;;;;;;5042148;28;20045;-76
2022/06/09 07:15:52;;;;;;;8.70;1.60;;;13.60;77.80;;;;;;5030817;28;20049;-77
2022/06/09 07:18:30;;;;;;;12.93;1.80;;;13.80;76.80;;;;;;5034866;28;20139;-76
2022/06/09 07:20:59;;;;;;;14.27;2.25;;;13.80;76.50;;;;;;5030337;28;20048;-76
2022/06/09 07:23:28;;;;;;;9.45;1.30;;;14.00;76.20;;;;;;5030392;28;20121;-76
2022/06/09 07:25:57;;;;;;;8.88;1.38;;;14.20;76.00;;;;;;5032245;28;20053;-77
2022/06/09 07:28:26;;;;;;;7.93;0.93;;;14.30;74.90;;;;;;5031933;28;20045;-76
2022/06/09 07:30:56;;;;;;;10.02;1.48;;;14.50;73.70;;;;;;5032302;28;20080;-78
2022/06/09 07:33:27;;;;;;;10.57;1.42;;;14.50;73.30;;;;;;5032233;28;20479;-76
2022/06/09 07:36:04;;;;;;;14.43;2.55;;;14.50;73.40;;;;;;5033836;28;20056;-77
2022/06/09 07:38:33;;;;;;;8.80;1.88;;;14.70;73.80;;;;;;5033133;28;20042;-77
2022/06/09 07:41:01;;;;;;;6.15;1.60;;;14.90;73.30;;;;;;5031355;28;20487;-77
2022/06/09 07:43:49;;;;;;;6.93;1.38;;;15.10;71.50;;;;;;5013221;28;20076;-77
2022/06/09 07:46:18;;;;;;;11.38;1.50;;;15.10;71.40;;;;;;5028417;28;20056;-77
2022/06/09 07:48:46;;;;;;;5.82;0.98;;;15.20;70.20;;;;;;5030921;28;20046;-77
2022/06/09 07:51:16;;;;;;;5.75;1.45;;;15.10;69.70;;;;;;5030729;28;20054;-77
2022/06/09 07:53:45;;;;;;;8.55;0.88;;;15.10;69.60;;;;;;5031979;28;20042;-77
2022/06/09 07:56:13;;;;;;;10.55;1.25;;;15.10;69.60;;;;;;5031624;28;20052;-77
2022/06/09 07:58:41;;;;;;;5.82;0.98;;;15.10;70.00;;;;;;5032015;28;20406;-77
2022/06/09 08:01:09;;;;;;;5.75;1.00;;;15.30;68.80;;;;;;5031757;28;20402;-77
2022/06/09 08:03:39;;;;;;;8.13;1.17;;;15.30;68.00;;;;;;5032012;28;20049;-77
2022/06/09 08:06:08;;;;;;;8.07;1.15;;;15.30;67.90;;;;;;5031982;28;20056;-77
2022/06/09 08:08:51;;;;;;;10.85;1.50;;;15.30;68.40;;;;;;5012122;28;20056;-77
2022/06/09 08:11:19;;;;;;;11.25;1.90;;;15.40;68.60;;;;;;5012163;28;20069;-77
2022/06/09 08:13:47;;;;;;;6.68;1.27;;;15.50;68.40;;;;;;5023290;28;20041;-76
2022/06/09 08:16:15;;;;;;;5.00;0.93;;;15.60;68.10;;;;;;5031604;28;20058;-77
2022/06/09 08:18:43;;;;;;;6.63;1.17;;;15.70;68.40;;;;;;5030945;28;20042;-77
2022/06/09 08:21:11;;;;;;;7.47;1.38;;;15.80;67.60;;;;;;5032013;28;20045;-77
2022/06/09 08:23:56;;;;;;;11.65;1.48;;;15.70;66.40;;;;;;5031996;28;20037;-77
2022/06/09 08:26:24;;;;;;;5.93;1.13;;;15.70;66.90;;;;;;5030301;28;20045;-77
2022/06/09 08:28:53;;;;;;;3.97;0.85;;;15.70;66.70;;;;;;5031575;28;20403;-78
2022/06/09 08:31:21;;;;;;;11.05;1.35;;;15.70;66.90;;;;;;5031660;28;20045;-77
2022/06/09 08:33:49;;;;;;;17.20;1.92;;;15.80;66.80;;;;;;5031643;28;20041;-77
2022/06/09 08:36:16;;;;;;;8.65;1.20;;;15.80;66.40;;;;;;5031778;28;20060;-77
2022/06/09 08:38:46;;;;;;;9.93;1.35;;;15.90;66.40;;;;;;5030938;28;20041;-77
2022/06/09 08:41:36;;;;;;;3.30;0.80;;;16.00;66.80;;;;;;5031342;28;20080;-77
2022/06/09 08:44:14;;;;;;;6.82;1.27;;;16.10;65.60;;;;;;5016752;28;20041;-78
2022/06/09 08:46:54;;;;;;;7.85;1.27;;;16.00;65.90;;;;;;5031785;28;20042;-77
2022/06/09 08:49:25;;;;;;;6.30;1.50;;;16.00;66.00;;;;;;5039914;28;20048;-77
2022/06/09 08:51:58;;;;;;;9.25;1.73;;;16.10;66.40;;;;;;5037013;28;20049;-77
2022/06/09 08:54:32;;;;;;;18.52;1.83;;;16.20;66.90;;;;;;5031457;28;20695;-77
2022/06/09 08:57:11;;;;;;;16.30;1.50;;;16.30;66.90;;;;;;5030828;28;20052;-77
2022/06/09 08:59:40;;;;;;;9.30;1.58;;;16.30;67.10;;;;;;5031664;28;20080;-77
2022/06/09 09:02:26;;;;;;;10.43;1.25;;;16.50;66.80;;;;;;5033643;28;20053;-77
2022/06/09 09:05:11;;;;;;;8.57;1.60;;;16.70;66.40;;;;;;5033937;28;20041;-77
2022/06/09 09:07:45;;;;;;;13.77;1.88;;;16.80;65.80;;;;;;5034709;28;20053;-77
2022/06/09 09:10:18;;;;;;;7.38;1.10;;;16.80;64.90;;;;;;5032845;28;20057;-77
2022/06/09 09:12:56;;;;;;;;;;;16.80;65.30;;;;;;5035553;28;20053;-77
2022/06/09 09:15:35;;;;;;;12.85;1.67;;;16.80;64.60;;;;;;5034784;28;19920;-76
2022/06/09 09:18:22;;;;;;;14.90;2.08;;;16.80;64.50;;;;;;5034569;28;20046;-77
2022/06/09 09:21:27;;;;;;;11.27;2.17;;;17.00;64.80;;;;;;5014977;28;20054;-77
2022/06/09 09:24:17;;;;;;;13.20;1.65;;;17.10;65.20;;;;;;5027258;28;20068;-77
2022/06/09 09:26:49;;;;;;;9.00;1.30;;;17.30;65.20;;;;;;5034575;28;20049;-77
2022/06/09 09:29:28;;;;;;;10.68;1.65;;;17.40;64.30;;;;;;5034323;28;20056;-77
2022/06/09 09:32:01;;;;;;;13.93;2.10;;;17.40;62.90;;;;;;5034045;28;20056;-77
2022/06/09 09:34:32;;;;;;;11.07;1.50;;;17.30;64.00;;;;;;5036133;28;20052;-75
2022/06/09 09:37:12;;;;;;;7.72;1.40;;;17.20;63.70;;;;;;5043939;28;20506;-76
2022/06/09 09:39:53;;;;;;;9.95;1.58;;;17.20;63.70;;;;;;5036213;28;20045;-77
2022/06/09 09:42:25;;;;;;;11.05;1.67;;;17.10;63.30;;;;;;5033221;28;20048;-75
2022/06/09 09:45:10;;;;;;;10.10;1.45;;;17.10;63.90;;;;;;5032363;28;20053;-76
2022/06/09 09:47:55;;;;;;;13.15;2.10;;;17.20;64.20;;;;;;5033925;28;20069;-76
2022/06/09 09:50:35;;;;;;;8.25;1.67;;;17.20;64.20;;;;;;5034194;28;20061;-75
2022/06/09 09:53:06;;;;;;;7.13;1.52;;;17.30;64.60;;;;;;5033837;28;20483;-76
2022/06/09 09:55:41;;;;;;;14.13;2.00;;;17.30;64.40;;;;;;5034327;28;20099;-76
2022/06/09 09:58:30;;;;;;;12.13;2.00;;;17.30;64.20;;;;;;5032872;28;20038;-76
2022/06/09 10:01:16;;;;;;;11.50;1.55;;;17.30;64.90;;;;;;5033899;28;20050;-75
2022/06/09 10:09:56;;;;;;;10.93;1.83;;;17.80;61.60;;;;;;5033744;28;20036;-76
2022/06/09 10:12:27;;;;;;;16.48;2.08;;;18.20;61.00;;;;;;5033300;28;20052;-76
2022/06/09 10:14:57;;;;;;;11.88;1.50;;;18.30;59.20;;;;;;5033626;28;20041;-76
2022/06/09 10:17:51;;;;;;;8.45;1.50;;;18.30;60.10;;;;;;5033590;28;20057;-76
2022/06/09 10:20:43;;;;;;;12.95;2.10;;;18.30;60.10;;;;;;5033426;28;20029;-76
2022/06/09 10:23:16;;;;;;;11.38;1.85;;;18.30;59.90;;;;;;5033636;28;20053;-76
2022/06/09 10:26:09;;;;;;;8.60;1.40;;;18.30;60.60;;;;;;5033409;28;20045;-76
2022/06/09 10:28:54;;;;;;;12.77;1.75;;;18.20;58.90;;;;;;5033365;28;20064;-77
2022/06/09 10:31:40;;;;;;;9.52;1.98;;;17.90;59.40;;;;;;5033455;28;20057;-76
2022/06/09 10:34:16;;;;;;;7.80;1.55;;;17.80;60.20;;;;;;5033376;28;20049;-76
2022/06/09 10:37:15;;;;;;;8.60;1.58;;;17.80;61.10;;;;;;5033085;28;20387;-76
2022/06/09 10:40:15;;;;;;;9.98;1.50;;;17.70;61.50;;;;;;5024003;28;20045;-76
2022/06/09 10:43:03;;;;;;;9.57;1.67;;;17.60;61.90;;;;;;5025833;28;20061;-76
2022/06/09 10:46:13;;;;;;;8.90;1.60;;;17.70;63.00;;;;;;5033057;28;20045;-76
2022/06/09 10:57:42;;;;;;;6.82;1.35;;;17.10;64.60;;;;;;5010744;28;20049;-77
2022/06/09 11:00:33;;;;;;;7.93;1.45;;;17.00;65.30;;;;;;5010321;28;20057;-77
2022/06/09 11:03:10;;;;;;;8.45;1.63;;;16.80;66.50;;;;;;5011981;28;20061;-77
2022/06/09 11:05:48;;;;;;;11.05;1.80;;;16.80;67.20;;;;;;5010551;28;20495;-77
2022/06/09 11:08:24;;;;;;;13.98;2.47;;;16.80;67.30;;;;;;5010890;28;20272;-77
2022/06/09 11:11:17;;;;;;;8.05;1.20;;;16.80;67.80;;;;;;5026772;28;20050;-77
2022/06/09 11:13:45;;;;;;;;;;;16.80;68.20;;;;;;5010058;28;20141;-75
2022/06/09 11:16:31;;;;;;;10.18;1.67;;;16.80;68.40;;;;;;5010390;28;19960;-77
2022/06/09 11:19:36;;;;;;;10.13;1.45;;;16.80;68.10;;;;;;5020641;28;20487;-77
2022/06/09 11:22:21;;;;;;;6.15;1.10;;;17.00;68.30;;;;;;5015030;28;20042;-77
2022/06/09 11:25:02;;;;;;;7.93;1.27;;;17.20;67.10;;;;;;5016452;28;20049;-77
2022/06/09 11:27:32;;;;;;;7.10;1.33;;;17.30;66.80;;;;;;5032440;28;20045;-78
2022/06/09 11:30:22;;;;;;;7.10;1.10;;;17.40;64.80;;;;;;5032540;28;20045;-77
2022/06/09 11:33:11;;;;;;;7.05;1.48;;;17.30;64.80;;;;;;5032769;28;20056;-76
2022/06/09 11:35:55;;;;;;;7.57;1.30;;;17.30;64.90;;;;;;5031192;28;20049;-75
2022/06/09 11:38:23;;;;;;;10.15;1.50;;;17.30;64.90;;;;;;5032527;28;20037;-75
2022/06/09 11:41:22;;;;;;;4.18;0.88;;;17.30;65.00;;;;;;5039138;28;20478;-76
2022/06/09 11:44:24;;;;;;;5.72;0.98;;;17.30;64.20;;;;;;5029690;28;20050;-76
2022/06/09 11:47:02;;;;;;;2.90;0.70;;;17.20;64.30;;;;;;5034087;28;20399;-77
2022/06/09 11:49:50;;;;;;;2.95;0.90;;;17.20;63.70;;;;;;5038025;28;20056;-77
2022/06/09 11:58:34;;;;;;;4.05;1.00;;;17.10;61.80;;;;;;4942985;29;20044;-77
2022/06/09 12:01:13;;;;;;;3.58;0.65;;;17.00;60.90;;;;;;4950752;29;20504;-77
2022/06/09 12:03:44;;;;;;;2.72;0.80;;;16.90;61.30;;;;;;4951931;29;20058;-77
2022/06/09 12:06:21;;;;;;;6.78;1.17;;;16.80;61.90;;;;;;4952717;29;20062;-78
2022/06/09 12:09:06;;;;;;;6.53;1.17;;;16.60;61.80;;;;;;4938551;29;20051;-77
2022/06/09 12:11:54;;;;;;;7.03;1.58;;;16.40;62.30;;;;;;4950436;29;20043;-77
2022/06/09 12:14:31;;;;;;;6.63;1.23;;;16.30;63.50;;;;;;4951868;29;20056;-78
2022/06/09 12:17:08;;;;;;;7.47;1.50;;;16.40;64.10;;;;;;4951244;29;20059;-78
2022/06/09 12:20:22;;;;;;;5.45;1.20;;;16.40;64.50;;;;;;4952496;29;20047;-77
2022/06/09 12:23:01;;;;;;;4.55;1.15;;;16.40;65.20;;;;;;4942133;29;20054;-77
2022/06/09 12:25:34;;;;;;;7.40;1.20;;;16.30;66.10;;;;;;4950886;29;20050;-77
2022/06/09 12:28:03;;;;;;;8.27;1.45;;;16.30;66.90;;;;;;4954974;29;20047;-76
2022/06/09 12:30:39;;;;;;;9.18;1.50;;;16.30;67.40;;;;;;4954255;29;20051;-77
2022/06/09 12:33:34;;;;;;;7.53;1.52;;;16.40;68.00;;;;;;4953803;29;20063;-77
2022/06/09 12:36:11;;;;;;;11.70;1.50;;;16.60;67.80;;;;;;4954617;28;20044;-77
2022/06/09 12:38:51;;;;;;;8.18;1.42;;;16.70;67.70;;;;;;4957163;29;20058;-78
2022/06/09 12:41:24;;;;;;;7.20;1.33;;;16.70;68.10;;;;;;4956333;28;20370;-77
2022/06/09 12:44:17;;;;;;;6.90;1.40;;;16.60;68.80;;;;;;4938003;29;20054;-78
2022/06/09 12:46:53;;;;;;;7.13;1.40;;;16.50;69.70;;;;;;4942858;29;20047;-79
2022/06/09 12:49:26;;;;;;;8.90;2.05;;;16.50;70.30;;;;;;4955501;29;20066;-77
2022/06/09 12:51:54;;;;;;;8.00;1.73;;;16.40;70.80;;;;;;4933895;29;20048;-78
2022/06/09 12:54:31;;;;;;;10.20;1.70;;;16.30;71.50;;;;;;4936639;29;20055;-76
2022/06/09 12:57:04;;;;;;;10.95;1.90;;;16.30;72.50;;;;;;4955018;29;20186;-78
2022/06/09 12:59:39;;;;;;;12.00;2.25;;;16.20;73.20;;;;;;4949596;29;20480;-78
2022/06/09 13:02:13;;;;;;;8.60;1.88;;;16.10;74.00;;;;;;4950442;29;20417;-79
2022/06/09 13:04:55;;;;;;;11.73;2.30;;;16.10;74.90;;;;;;4957573;29;20050;-79
2022/06/09 13:07:28;;;;;;;10.27;2.35;;;16.00;75.20;;;;;;4957886;29;20066;-79
2022/06/09 13:10:08;;;;;;;;;;;16.10;75.50;;;;;;4959256;29;20058;-79
2022/06/09 13:12:51;;;;;;;10.13;1.77;;;16.10;75.70;;;;;;4957744;29;19926;-78
2022/06/09 13:15:48;;;;;;;11.00;2.22;;;16.10;75.50;;;;;;4956768;29;20223;-81
2022/06/09 13:18:31;;;;;;;13.82;2.28;;;16.00;75.80;;;;;;4958302;29;20047;-81
2022/06/09 13:21:11;;;;;;;12.57;2.22;;;15.90;75.90;;;;;;4956776;29;20404;-81
2022/06/09 13:23:41;;;;;;;12.63;2.08;;;15.80;76.00;;;;;;4939720;29;20055;-81
2022/06/09 13:26:14;;;;;;;10.60;2.45;;;15.90;76.20;;;;;;4939940;29;20066;-81
2022/06/09 13:28:48;;;;;;;13.13;2.28;;;16.00;76.20;;;;;;4956645;28;20519;-81
2022/06/09 13:31:37;;;;;;;10.90;1.88;;;16.10;76.10;;;;;;4955610;29;20043;-81
2022/06/09 13:34:11;;;;;;;14.38;1.95;;;16.20;75.70;;;;;;4954871;29;20086;-80
2022/06/09 13:36:55;;;;;;;11.82;2.13;;;16.20;75.50;;;;;;4956485;29;20047;-81
2022/06/09 13:39:32;;;;;;;9.18;2.20;;;16.10;75.50;;;;;;4955902;29;20051;-81
2022/06/09 13:42:12;;;;;;;10.73;1.83;;;16.00;75.60;;;;;;4956313;29;20043;-81
2022/06/09 13:44:44;;;;;;;9.57;2.03;;;16.00;75.70;;;;;;4938298;29;20055;-81
2022/06/09 13:47:28;;;;;;;14.25;2.38;;;16.00;75.90;;;;;;4953426;28;20404;-80
2022/06/09 13:50:11;;;;;;;9.93;2.15;;;15.90;76.30;;;;;;4919667;29;20059;-80
2022/06/09 13:52:41;;;;;;;9.60;2.15;;;15.90;76.60;;;;;;4953528;29;20416;-81